Time;durP1;ratioP1;P1;durP2;ratioP2;P2;SDS_P1;SDS_P2;PMS_P1;PMS_P2;Temp;Humidity;BMP_temperature;BMP_pressure;BME280_temperature;BME280_humidity;BME280_pressure;Samples;Min_cycle;Max_cycle;Signal;HPM_P1;HPM_P2
2022/03/31 00:00:32;;;;;;;17.48;6.97;;;;;;;14.07;73.85;96970.63;5092252;28;20031;-49
2022/03/31 00:02:59;;;;;;;16.85;7.28;;;;;;;14.03;73.66;96959.81;5092269;28;20059;-49
2022/03/31 00:05:25;;;;;;;15.93;6.55;;;;;;;14.06;73.81;96958.47;5092204;28;20058;-49
2022/03/31 00:07:53;;;;;;;17.63;7.05;;;;;;;14.09;73.58;96961.38;5092071;28;20438;-48
2022/03/31 00:10:28;;;;;;;18.48;6.60;;;;;;;14.06;72.79;96961.91;5092161;28;20085;-48
2022/03/31 00:12:55;;;;;;;17.40;6.68;;;;;;;14.11;73.12;96961.13;5092220;28;20050;-48
2022/03/31 00:15:22;;;;;;;18.02;6.50;;;;;;;14.09;72.82;96958.75;5092055;28;20032;-49
2022/03/31 00:17:48;;;;;;;21.40;6.75;;;;;;;14.16;72.20;96956.63;5090716;28;20397;-49
2022/03/31 00:20:14;;;;;;;16.42;5.70;;;;;;;14.03;71.92;96951.13;5091957;28;20024;-49
2022/03/31 00:22:40;;;;;;;16.27;6.22;;;;;;;14.01;72.04;96942.69;5091964;28;20026;-49
2022/03/31 00:25:07;;;;;;;22.45;7.28;;;;;;;13.99;71.97;96946.34;5091912;28;20020;-49
2022/03/31 00:27:34;;;;;;;16.05;6.22;;;;;;;13.97;71.92;96937.13;5090268;28;20120;-49
2022/03/31 00:30:00;;;;;;;18.90;7.05;;;;;;;13.98;71.59;96936.06;5091943;28;20022;-48
2022/03/31 00:32:26;;;;;;;15.77;7.93;;;;;;;13.96;72.30;96932.91;5091859;28;20490;-49
2022/03/31 00:34:51;;;;;;;21.52;7.35;;;;;;;13.99;72.35;96930.53;5091867;28;20016;-49
2022/03/31 00:37:17;;;;;;;16.50;7.13;;;;;;;14.01;72.26;96935.53;5090505;28;20024;-48
2022/03/31 00:39:43;;;;;;;18.77;7.20;;;;;;;13.84;71.05;96930.53;5091747;28;20099;-48
2022/03/31 00:42:10;;;;;;;21.25;7.70;;;;;;;13.61;70.42;96934.50;5090475;28;20118;-49
2022/03/31 00:44:36;;;;;;;15.80;7.38;;;;;;;13.43;71.53;96924.47;5091787;28;20012;-49
2022/03/31 00:47:02;;;;;;;17.85;6.57;;;;;;;13.48;72.23;96925.28;5091645;28;20047;-49
2022/03/31 00:49:29;;;;;;;21.50;7.35;;;;;;;13.50;72.06;96917.88;5090350;28;20020;-50
2022/03/31 00:51:55;;;;;;;18.45;7.40;;;;;;;13.49;71.83;96910.25;5091664;28;20032;-49
2022/03/31 00:54:25;;;;;;;21.00;7.70;;;;;;;13.50;72.42;96915.25;5091731;28;20394;-50
2022/03/31 00:56:52;;;;;;;19.20;6.75;;;;;;;13.50;71.68;96911.81;5090299;28;20034;-49
2022/03/31 00:59:18;;;;;;;19.70;6.95;;;;;;;13.53;71.83;96906.81;5091645;28;20024;-48
2022/03/31 01:01:46;;;;;;;19.95;7.53;;;;;;;13.59;71.84;96895.22;5090236;28;20078;-49
2022/03/31 01:04:13;;;;;;;19.13;7.65;;;;;;;13.70;72.32;96905.75;5091826;28;20417;-48
2022/03/31 01:06:40;;;;;;;22.30;8.27;;;;;;;13.83;72.05;96899.19;5091558;28;20036;-49
2022/03/31 01:09:06;;;;;;;18.38;7.03;;;;;;;13.93;71.39;96893.88;5090229;28;20024;-49
2022/03/31 01:11:32;;;;;;;15.52;7.22;;;;;;;13.86;70.21;96893.34;5095431;28;20490;-48
2022/03/31 01:13:58;;;;;;;14.02;6.10;;;;;;;13.72;70.40;96899.19;5094126;28;20498;-48
2022/03/31 01:16:25;;;;;;;18.20;7.07;;;;;;;13.60;70.55;96893.34;5094060;28;20028;-48
2022/03/31 01:18:51;;;;;;;20.73;7.78;;;;;;;13.51;70.47;96894.97;5094024;28;20032;-48
2022/03/31 01:21:20;;;;;;;16.08;7.40;;;;;;;13.47;70.20;96896.53;5093968;28;20105;-49
2022/03/31 01:23:46;;;;;;;17.45;9.48;;;;;;;13.41;70.92;96887.06;5093936;28;20382;-49
2022/03/31 01:26:13;;;;;;;22.90;13.93;;;;;;;13.36;71.57;96886.00;5093912;28;20058;-49
2022/03/31 01:28:43;;;;;;;22.88;16.75;;;;;;;13.17;71.24;96885.66;5093525;28;20055;-50
2022/03/31 01:31:10;;;;;;;19.08;8.48;;;;;;;12.93;71.84;96877.44;5093819;28;20394;-49
2022/03/31 01:33:37;;;;;;;17.25;7.43;;;;;;;12.92;72.71;96875.09;5095065;28;20510;-49
2022/03/31 01:36:04;;;;;;;13.05;7.53;;;;;;;13.06;73.53;96873.53;5093670;28;20028;-49
2022/03/31 01:38:30;;;;;;;20.73;8.45;;;;;;;13.27;72.37;96868.28;5095014;28;20024;-49
2022/03/31 01:40:56;;;;;;;14.50;8.40;;;;;;;13.30;72.20;96858.06;5094991;28;20034;-48
2022/03/31 01:43:23;;;;;;;16.00;7.35;;;;;;;13.26;71.38;96854.34;5093540;28;20016;-50
2022/03/31 01:45:49;;;;;;;10.98;7.63;;;;;;;13.21;71.58;96854.31;5094835;28;20016;-50
2022/03/31 01:48:16;;;;;;;14.15;7.63;;;;;;;13.21;71.73;96854.31;5094779;28;20024;-48
2022/03/31 01:50:42;;;;;;;20.02;9.15;;;;;;;13.42;72.28;96852.53;5094692;28;20093;-50
2022/03/31 01:53:09;;;;;;;19.95;8.48;;;;;;;13.63;72.14;96858.59;5094742;28;20456;-50
2022/03/31 01:55:35;;;;;;;18.95;7.75;;;;;;;13.65;71.52;96851.19;5093467;28;20026;-50
2022/03/31 01:58:01;;;;;;;18.35;7.47;;;;;;;13.73;71.47;96850.66;5094621;28;20032;-49
2022/03/31 02:00:27;;;;;;;16.80;7.07;;;;;;;13.71;71.17;96849.34;5094504;28;20078;-49
2022/03/31 02:02:53;;;;;;;13.30;6.90;;;;;;;13.75;71.81;96856.47;5094566;28;20494;-48
2022/03/31 02:05:19;;;;;;;16.58;6.93;;;;;;;13.83;70.50;96855.13;5093114;28;20451;-49
2022/03/31 02:07:44;;;;;;;27.88;17.42;;;;;;;13.87;70.76;96845.63;5094383;28;20020;-49
2022/03/31 02:10:12;;;;;;;26.98;9.50;;;;;;;13.97;70.30;96839.56;5094388;28;20063;-49
2022/03/31 02:12:38;;;;;;;21.38;9.93;;;;;;;13.96;69.35;96843.22;5093020;28;20036;-49
2022/03/31 02:15:05;;;;;;;25.05;8.82;;;;;;;13.80;69.20;96837.19;5094316;28;20027;-50
2022/03/31 02:17:32;;;;;;;14.15;6.78;;;;;;;13.52;69.14;96838.53;5094230;28;20468;-49
2022/03/31 02:19:58;;;;;;;21.50;11.80;;;;;;;13.22;69.19;96828.78;5092755;28;20783;-48
2022/03/31 02:22:24;;;;;;;21.92;8.80;;;;;;;12.90;69.83;96832.44;5092652;28;20027;-48
2022/03/31 02:24:49;;;;;;;23.40;10.00;;;;;;;12.74;70.66;96829.78;5094111;28;20020;-49
2022/03/31 02:27:15;;;;;;;19.75;7.75;;;;;;;12.68;71.20;96827.41;5093684;28;20028;-50
2022/03/31 02:29:41;;;;;;;18.77;7.53;;;;;;;12.83;71.28;96831.88;5094339;28;20028;-49
2022/03/31 02:32:07;;;;;;;17.13;8.35;;;;;;;13.06;71.37;96825.31;5093938;28;20026;-49
2022/03/31 02:34:34;;;;;;;20.00;8.10;;;;;;;13.23;70.15;96825.88;5093911;28;20024;-48
2022/03/31 02:36:59;;;;;;;15.70;8.20;;;;;;;13.24;70.13;96816.94;5093927;28;20545;-50
2022/03/31 02:39:28;;;;;;;14.55;7.60;;;;;;;13.24;69.61;96818.75;5093760;28;20103;-49
2022/03/31 02:41:57;;;;;;;23.27;11.73;;;;;;;13.22;70.68;96815.59;5093776;28;20028;-50
2022/03/31 02:44:24;;;;;;;24.45;10.27;;;;;;;13.19;70.45;96811.66;5093726;28;20557;-50
2022/03/31 02:46:51;;;;;;;20.85;9.38;;;;;;;13.22;70.23;96812.97;5093672;28;20024;-50
2022/03/31 02:49:17;;;;;;;13.65;8.05;;;;;;;13.32;70.69;96816.44;5092261;28;20081;-50
2022/03/31 02:51:43;;;;;;;17.45;8.15;;;;;;;13.39;70.20;96803.78;5093543;28;20075;-49
2022/03/31 02:56:54;;;;;;;26.95;8.13;;;;;;;13.75;69.87;96798.47;5093725;28;20058;-50
2022/03/31 02:59:20;;;;;;;18.67;8.07;;;;;;;13.85;68.91;96802.13;5093366;28;20028;-50
2022/03/31 03:01:46;;;;;;;21.05;8.75;;;;;;;13.79;68.42;96791.59;5093317;28;20435;-49
2022/03/31 03:04:13;;;;;;;15.65;8.32;;;;;;;13.81;67.95;96793.97;5093343;28;20024;-50
2022/03/31 03:06:39;;;;;;;17.35;8.15;;;;;;;13.73;67.64;96797.94;5093258;28;20099;-50
2022/03/31 03:09:06;;;;;;;18.50;7.97;;;;;;;13.55;67.80;96794.00;5093173;28;20032;-50
2022/03/31 03:11:32;;;;;;;16.20;8.02;;;;;;;13.45;68.21;96793.25;5093130;28;20024;-49
2022/03/31 03:13:58;;;;;;;21.50;8.60;;;;;;;13.44;68.80;96784.56;5093107;28;20024;-50
2022/03/31 03:16:25;;;;;;;19.55;10.55;;;;;;;13.52;68.87;96786.66;5093059;28;20103;-50
2022/03/31 03:18:52;;;;;;;16.83;7.57;;;;;;;13.71;68.67;96781.59;5093042;28;20028;-50
2022/03/31 03:21:20;;;;;;;20.83;8.70;;;;;;;13.78;68.38;96774.22;5093028;28;20103;-50
2022/03/31 03:23:46;;;;;;;18.88;8.25;;;;;;;13.74;67.34;96772.34;5092982;28;20028;-50
2022/03/31 03:26:12;;;;;;;30.27;12.82;;;;;;;13.58;66.94;96776.88;5092868;28;20027;-49
2022/03/31 03:28:38;;;;;;;13.77;7.63;;;;;;;13.40;67.38;96767.69;5091170;28;20040;-49
2022/03/31 03:31:05;;;;;;;15.35;7.63;;;;;;;13.34;67.85;96780.06;5091635;28;20016;-50
2022/03/31 03:33:32;;;;;;;19.20;8.02;;;;;;;13.41;68.27;96781.66;5090765;28;20113;-49
2022/03/31 03:36:03;;;;;;;23.17;8.27;;;;;;;13.41;68.77;96781.66;5092683;28;20023;-49
2022/03/31 03:38:31;;;;;;;21.10;7.25;;;;;;;13.53;68.14;96771.63;5092741;28;20114;-49
2022/03/31 03:40:56;;;;;;;22.38;7.95;;;;;;;13.55;67.51;96765.03;5091339;28;20024;-49
2022/03/31 03:43:22;;;;;;;14.75;7.13;;;;;;;13.45;66.96;96767.66;5091305;28;20026;-49
2022/03/31 03:45:48;;;;;;;18.33;8.48;;;;;;;13.32;67.07;96771.66;5092567;28;20102;-49
2022/03/31 03:48:14;;;;;;;21.17;7.82;;;;;;;13.38;68.18;96773.22;5092415;28;20020;-50
2022/03/31 03:50:40;;;;;;;20.85;7.68;;;;;;;13.62;68.22;96763.94;5092454;28;20024;-49
2022/03/31 03:53:07;;;;;;;15.30;8.30;;;;;;;13.83;67.72;96772.63;5092455;28;20056;-49
2022/03/31 03:55:34;;;;;;;20.38;9.25;;;;;;;14.04;67.90;96773.31;5092390;28;20557;-50
2022/03/31 03:58:00;;;;;;;21.85;8.05;;;;;;;14.23;67.06;96769.03;5092301;28;20032;-50
2022/03/31 04:00:27;;;;;;;19.95;7.68;;;;;;;14.36;66.94;96773.69;5092307;28;20032;-50
2022/03/31 04:02:53;;;;;;;18.05;8.48;;;;;;;14.53;66.26;96769.94;5092240;28;20016;-49
2022/03/31 04:05:20;;;;;;;17.75;7.43;;;;;;;14.48;65.95;96765.47;5092197;28;20065;-49
2022/03/31 04:07:46;;;;;;;18.65;7.35;;;;;;;14.43;65.60;96765.50;5092127;28;20375;-50
2022/03/31 04:10:12;;;;;;;11.93;7.60;;;;;;;14.43;64.97;96768.16;5092152;28;20031;-49
2022/03/31 04:12:39;;;;;;;21.05;8.98;;;;;;;14.36;65.24;96765.78;5092119;28;20099;-49
2022/03/31 04:15:06;;;;;;;23.38;8.30;;;;;;;14.44;65.68;96763.66;5092060;28;20401;-50
2022/03/31 04:17:33;;;;;;;20.52;7.55;;;;;;;14.54;65.30;96763.59;5092078;28;20076;-49
2022/03/31 04:19:59;;;;;;;17.38;9.38;;;;;;;14.69;64.90;96760.91;5090758;28;20028;-50
2022/03/31 04:22:25;;;;;;;18.33;8.57;;;;;;;14.71;64.45;96755.34;5091981;28;20020;-49
2022/03/31 04:24:50;;;;;;;18.55;7.68;;;;;;;14.67;64.82;96759.56;5092018;28;20035;-50
2022/03/31 04:27:16;;;;;;;16.70;7.88;;;;;;;14.74;65.14;96754.78;5090239;28;20024;-49
2022/03/31 04:29:42;;;;;;;21.90;10.00;;;;;;;14.75;64.68;96753.75;5090690;28;20032;-49
2022/03/31 04:32:08;;;;;;;22.15;8.93;;;;;;;14.51;64.64;96754.38;5091901;28;20020;-50
2022/03/31 04:34:34;;;;;;;32.25;9.25;;;;;;;14.52;65.10;96753.31;5090524;28;20513;-50
2022/03/31 04:37:01;;;;;;;29.88;9.07;;;;;;;14.55;65.01;96757.25;5091761;28;20030;-49
2022/03/31 04:39:26;;;;;;;31.85;9.43;;;;;;;14.66;64.69;96758.78;5091832;28;20110;-50
2022/03/31 04:41:52;;;;;;;23.45;8.07;;;;;;;14.68;64.04;96756.66;5090480;28;20110;-50
2022/03/31 04:44:19;;;;;;;27.15;8.25;;;;;;;14.73;63.95;96758.50;5092516;28;20020;-50
2022/03/31 04:46:45;;;;;;;28.95;8.30;;;;;;;14.81;63.89;96760.56;5095949;28;20081;-50
2022/03/31 04:49:11;;;;;;;25.42;9.63;;;;;;;14.90;63.94;96758.13;5094501;28;20062;-50
2022/03/31 04:51:38;;;;;;;19.95;8.38;;;;;;;15.12;63.65;96755.03;5094549;28;20059;-49
2022/03/31 04:54:04;;;;;;;21.60;9.07;;;;;;;15.22;63.04;96756.81;5094474;28;20028;-50
2022/03/31 04:56:30;;;;;;;15.35;8.25;;;;;;;15.31;62.61;96752.47;5095822;28;20403;-51
2022/03/31 04:58:56;;;;;;;22.90;8.30;;;;;;;15.41;62.71;96748.97;5095763;28;20050;-50
2022/03/31 05:01:23;;;;;;;22.63;8.18;;;;;;;15.62;62.24;96744.28;5095607;28;20028;-50
2022/03/31 05:03:49;;;;;;;19.77;7.88;;;;;;;15.80;61.45;96748.88;5095671;28;20047;-50
2022/03/31 05:06:16;;;;;;;19.27;8.95;;;;;;;15.87;61.12;96744.00;5095868;28;20482;-50
2022/03/31 05:08:42;;;;;;;22.77;8.93;;;;;;;15.93;60.96;96742.09;5095464;28;20020;-49
2022/03/31 05:11:08;;;;;;;21.42;8.45;;;;;;;15.93;60.78;96748.16;5095497;28;20107;-50
2022/03/31 05:13:34;;;;;;;26.58;9.00;;;;;;;15.99;60.92;96746.25;5095493;28;20111;-50
2022/03/31 05:16:00;;;;;;;23.98;9.25;;;;;;;16.05;60.60;96747.78;5094094;28;20412;-49
2022/03/31 05:18:25;;;;;;;20.83;8.43;;;;;;;16.17;60.33;96750.00;5095324;28;20107;-49
2022/03/31 05:20:52;;;;;;;26.08;8.77;;;;;;;16.24;60.11;96750.47;5095283;28;20081;-50
2022/03/31 05:23:18;;;;;;;25.92;9.43;;;;;;;16.26;59.59;96747.50;5095284;28;20016;-50
2022/03/31 05:25:44;;;;;;;25.10;9.70;;;;;;;16.28;59.51;96755.94;5095267;28;20434;-49
2022/03/31 05:28:11;;;;;;;24.15;8.40;;;;;;;16.37;60.27;96746.31;5093581;28;20051;-51
2022/03/31 05:30:37;;;;;;;29.50;11.30;;;;;;;16.35;59.91;96751.88;5095125;28;20028;-49
2022/03/31 05:33:04;;;;;;;32.72;8.98;;;;;;;16.24;59.62;96750.47;5095074;28;20035;-50
2022/03/31 05:35:30;;;;;;;23.48;9.38;;;;;;;16.16;59.33;96757.16;5095037;28;20025;-49
2022/03/31 05:37:56;;;;;;;18.30;9.02;;;;;;;16.03;58.74;96757.06;5095026;28;20032;-49
2022/03/31 05:40:23;;;;;;;25.65;10.18;;;;;;;15.89;59.75;96756.97;5093649;28;20028;-50
2022/03/31 05:42:49;;;;;;;30.88;11.43;;;;;;;15.80;62.42;96758.66;5094904;28;20077;-49
2022/03/31 05:45:15;;;;;;;31.63;13.25;;;;;;;15.51;64.86;96757.59;5093510;28;20418;-48
2022/03/31 05:47:43;;;;;;;31.33;11.90;;;;;;;15.09;66.63;96759.03;5093422;28;20027;-49
2022/03/31 05:50:11;;;;;;;31.50;12.38;;;;;;;14.63;67.82;96753.25;5094737;28;20012;-48
2022/03/31 05:52:42;;;;;;;65.18;38.78;;;;;;;14.27;68.59;96762.16;5093366;28;20039;-48
2022/03/31 05:55:10;;;;;;;28.38;12.98;;;;;;;14.02;69.91;96763.03;5093971;28;20028;-48
2022/03/31 05:57:36;;;;;;;26.67;12.80;;;;;;;13.88;70.90;96762.81;5093322;28;20032;-48
2022/03/31 06:00:06;;;;;;;28.65;16.33;;;;;;;13.85;71.33;96760.72;5093232;28;20421;-48
2022/03/31 06:02:31;;;;;;;26.15;13.40;;;;;;;13.79;71.96;96767.88;5093252;28;20028;-48
2022/03/31 06:04:57;;;;;;;26.45;12.43;;;;;;;13.89;71.99;96764.41;5093128;28;20020;-48
2022/03/31 06:07:23;;;;;;;31.13;11.77;;;;;;;13.99;71.18;96761.72;5092983;28;20032;-48
2022/03/31 06:09:49;;;;;;;26.70;11.77;;;;;;;14.18;70.87;96754.03;5094599;28;20103;-48
2022/03/31 06:12:15;;;;;;;21.98;10.52;;;;;;;14.32;69.41;96756.06;5094355;28;20024;-48
2022/03/31 06:14:41;;;;;;;23.50;10.95;;;;;;;14.22;68.75;96748.97;5094342;28;20016;-48
2022/03/31 06:17:08;;;;;;;30.00;11.27;;;;;;;14.29;68.52;96748.69;5092914;28;20042;-48
2022/03/31 06:19:35;;;;;;;31.38;11.35;;;;;;;14.30;68.05;96751.03;5094236;28;20471;-48
2022/03/31 06:22:00;;;;;;;24.20;11.23;;;;;;;14.44;67.75;96755.72;5094159;28;20028;-48
2022/03/31 06:24:26;;;;;;;27.25;11.68;;;;;;;14.68;67.16;96755.88;5094093;28;20073;-48
2022/03/31 06:26:52;;;;;;;23.92;11.38;;;;;;;14.83;65.20;96750.50;5094011;28;20024;-49
2022/03/31 06:29:18;;;;;;;22.00;9.95;;;;;;;14.93;64.83;96747.78;5093621;28;20085;-48
2022/03/31 06:31:44;;;;;;;21.58;9.43;;;;;;;15.13;64.46;96748.66;5093928;28;20044;-48
2022/03/31 06:34:10;;;;;;;30.50;10.82;;;;;;;15.25;64.30;96746.47;5093908;28;20024;-49
2022/03/31 06:36:36;;;;;;;19.10;9.48;;;;;;;15.36;64.29;96755.88;5092606;28;20024;-49
2022/03/31 06:39:03;;;;;;;24.85;9.50;;;;;;;15.46;63.26;96752.34;5092498;28;20562;-48
2022/03/31 06:41:29;;;;;;;26.92;9.90;;;;;;;15.51;61.55;96759.44;5093825;28;20021;-49
2022/03/31 06:43:54;;;;;;;26.48;10.27;;;;;;;15.54;61.49;96750.97;5075650;28;20093;-48
2022/03/31 06:46:20;;;;;;;55.33;13.63;;;;;;;15.52;61.41;96756.53;5093695;28;20031;-48
2022/03/31 06:48:47;;;;;;;40.90;11.43;;;;;;;15.51;61.34;96759.44;5092254;28;20073;-49
2022/03/31 06:51:15;;;;;;;32.45;12.95;;;;;;;15.64;61.23;96766.72;5093572;28;20394;-49
2022/03/31 06:53:42;;;;;;;35.22;16.48;;;;;;;15.77;60.66;96763.44;5093626;28;20019;-49
2022/03/31 06:56:10;;;;;;;41.92;15.45;;;;;;;15.94;60.48;96770.91;5093460;28;20486;-50
2022/03/31 06:58:36;;;;;;;36.50;14.10;;;;;;;16.11;60.19;96769.66;5093525;28;20374;-49
2022/03/31 07:01:04;;;;;;;32.00;12.93;;;;;;;16.27;60.11;96772.91;5093729;28;20039;-49
2022/03/31 07:03:30;;;;;;;27.50;11.95;;;;;;;16.30;59.73;96775.00;5093450;28;20367;-49
2022/03/31 07:05:56;;;;;;;36.92;11.48;;;;;;;16.28;59.18;96777.13;5093299;28;20043;-49
2022/03/31 07:08:22;;;;;;;26.50;11.63;;;;;;;16.46;59.06;96778.22;5092227;28;20031;-47
2022/03/31 07:10:49;;;;;;;23.33;12.15;;;;;;;16.46;58.22;96776.38;5093262;28;20032;-49
2022/03/31 07:13:15;;;;;;;26.48;12.02;;;;;;;16.14;58.34;96780.47;5093256;28;20493;-49
2022/03/31 07:15:41;;;;;;;30.42;11.35;;;;;;;16.09;58.63;96777.09;5093156;28;20663;-49
2022/03/31 07:18:07;;;;;;;29.80;13.60;;;;;;;16.04;57.76;96770.03;5091721;28;20024;-49
2022/03/31 07:20:34;;;;;;;34.28;12.75;;;;;;;15.92;58.13;96773.06;5091704;28;20051;-49
2022/03/31 07:23:01;;;;;;;34.33;13.00;;;;;;;16.12;57.94;96771.25;5091655;28;20145;-49
2022/03/31 07:25:27;;;;;;;31.92;12.18;;;;;;;16.21;57.63;96771.41;5091577;28;20409;-48
2022/03/31 07:27:55;;;;;;;42.85;31.08;;;;;;;16.32;57.30;96778.16;5092580;28;20528;-48
2022/03/31 07:30:22;;;;;;;35.15;23.65;;;;;;;16.47;57.17;96774.53;5092935;28;20410;-49
2022/03/31 07:32:56;;;;;;;35.72;18.77;;;;;;;16.66;56.36;96777.16;5091481;28;20494;-49
2022/03/31 07:35:26;;;;;;;31.25;16.95;;;;;;;16.85;56.03;96777.19;5092802;28;20148;-49
2022/03/31 07:37:54;;;;;;;27.77;13.23;;;;;;;16.97;55.58;96770.38;5092717;28;20417;-48
2022/03/31 07:40:21;;;;;;;25.60;12.13;;;;;;;17.16;55.02;96769.56;5092669;28;20065;-49
2022/03/31 07:42:48;;;;;;;21.80;12.40;;;;;;;17.35;54.79;96772.94;5091483;28;20051;-48
2022/03/31 07:45:14;;;;;;;27.10;12.73;;;;;;;17.56;54.36;96764.63;5091222;28;20027;-49
2022/03/31 07:47:41;;;;;;;26.85;12.05;;;;;;;17.64;53.89;96774.56;5092505;28;20024;-49
2022/03/31 07:50:09;;;;;;;28.35;11.18;;;;;;;17.64;53.83;96763.19;5092432;28;20240;-49
2022/03/31 07:52:36;;;;;;;27.45;11.68;;;;;;;17.74;53.61;96774.38;5091145;28;20024;-50
2022/03/31 07:55:02;;;;;;;32.08;13.23;;;;;;;17.80;53.15;96766.34;5091019;28;20028;-50
2022/03/31 07:57:28;;;;;;;29.80;11.77;;;;;;;17.74;52.88;96776.25;5092380;28;20103;-49
2022/03/31 07:59:54;;;;;;;31.63;12.10;;;;;;;17.70;53.43;96770.75;5091053;28;20028;-49
2022/03/31 08:02:21;;;;;;;25.70;12.13;;;;;;;17.85;53.12;96771.56;5091009;28;20566;-49
2022/03/31 08:04:47;;;;;;;21.42;11.35;;;;;;;17.91;52.54;96773.84;5090931;28;20020;-49
2022/03/31 08:07:12;;;;;;;32.65;13.07;;;;;;;17.61;52.60;96777.81;5092098;28;20145;-49
2022/03/31 08:09:38;;;;;;;30.10;13.45;;;;;;;17.16;53.23;96777.50;5092243;28;20022;-49
2022/03/31 08:12:06;;;;;;;33.55;12.23;;;;;;;17.03;54.29;96772.97;5092122;28;20028;-49
2022/03/31 08:14:32;;;;;;;27.20;12.27;;;;;;;17.14;54.19;96769.06;5092166;28;20020;-49
2022/03/31 08:16:58;;;;;;;26.88;12.50;;;;;;;17.19;53.43;96774.28;5090780;28;20383;-51
2022/03/31 08:19:24;;;;;;;36.05;13.50;;;;;;;17.23;53.67;96771.84;5090433;28;20035;-47
2022/03/31 08:21:50;;;;;;;23.88;11.88;;;;;;;17.51;53.18;96778.78;5091992;28;20016;-50
2022/03/31 08:24:16;;;;;;;31.35;11.38;;;;;;;17.68;53.07;96778.22;5091964;28;20093;-50
2022/03/31 08:26:43;;;;;;;24.17;12.13;;;;;;;17.77;52.37;96771.16;5091949;28;20067;-49
2022/03/31 08:29:11;;;;;;;42.30;16.88;;;;;;;17.65;53.71;96775.38;5091652;28;20085;-50
2022/03/31 08:31:37;;;;;;;21.88;13.55;;;;;;;17.46;55.33;96786.03;5091921;28;20107;-49
2022/03/31 08:34:05;;;;;;;41.05;20.33;;;;;;;17.13;57.62;96783.41;5091940;28;20042;-50
2022/03/31 08:36:31;;;;;;;43.03;27.73;;;;;;;16.31;60.89;96790.59;5091901;28;20016;-49
2022/03/31 08:38:57;;;;;;;42.45;17.67;;;;;;;15.55;64.47;96798.28;5091827;28;20099;-50
2022/03/31 08:41:26;;;;;;;54.13;17.95;;;;;;;14.72;66.24;96791.25;5090474;28;20047;-50
2022/03/31 08:43:52;;;;;;;55.45;18.95;;;;;;;13.77;68.45;96806.09;5091762;28;20493;-50
2022/03/31 08:46:18;;;;;;;61.92;19.77;;;;;;;13.35;72.08;96805.34;5091781;28;20048;-50
2022/03/31 08:48:44;;;;;;;72.35;21.73;;;;;;;13.05;73.76;96810.59;5091954;28;20422;-50
2022/03/31 08:51:10;;;;;;;43.47;15.50;;;;;;;12.62;74.23;96810.00;5090418;28;20053;-50
2022/03/31 08:53:36;;;;;;;40.85;16.02;;;;;;;12.27;74.93;96803.56;5090437;28;20031;-48
2022/03/31 08:56:03;;;;;;;38.40;11.50;;;;;;;12.12;75.36;96812.97;5091762;28;20021;-50
2022/03/31 08:58:30;;;;;;;41.85;12.07;;;;;;;12.04;75.75;96804.78;5091689;28;20020;-49
2022/03/31 09:00:56;;;;;;;63.65;14.45;;;;;;;11.97;76.01;96815.53;5091621;28;20120;-50
2022/03/31 09:03:33;;;;;;;55.28;15.35;;;;;;;11.99;76.90;96813.44;5091608;28;20107;-50
2022/03/31 09:05:59;;;;;;;46.22;14.73;;;;;;;12.16;77.41;96815.88;5091662;28;20032;-50
2022/03/31 09:08:25;;;;;;;37.25;13.32;;;;;;;12.21;77.84;96815.91;5090147;28;20031;-49
2022/03/31 09:10:55;;;;;;;30.92;12.40;;;;;;;12.30;77.91;96818.84;5090254;28;20024;-49
2022/03/31 09:13:23;;;;;;;50.15;33.55;;;;;;;12.31;77.45;96808.03;5091591;28;20013;-49
2022/03/31 09:15:57;;;;;;;42.63;27.05;;;;;;;12.36;77.66;96817.81;5107160;28;20028;-49
2022/03/31 09:18:25;;;;;;;40.88;12.90;;;;;;;12.46;76.53;96817.84;5090196;28;20024;-49
2022/03/31 09:20:53;;;;;;;38.13;10.88;;;;;;;12.49;76.25;96819.16;5091430;28;20546;-49
2022/03/31 09:23:25;;;;;;;42.05;10.85;;;;;;;12.57;75.07;96811.56;5091454;28;20113;-49
2022/03/31 09:25:51;;;;;;;31.58;10.05;;;;;;;12.72;74.65;96810.81;5091410;28;20405;-49
2022/03/31 09:28:22;;;;;;;23.00;9.48;;;;;;;12.88;73.21;96813.47;5089916;28;20109;-49
2022/03/31 09:30:52;;;;;;;21.25;9.50;;;;;;;13.35;72.96;96813.25;5091050;28;20120;-48
2022/03/31 09:33:35;;;;;;;22.38;9.65;;;;;;;14.33;73.24;96808.56;5095113;28;20054;-49
2022/03/31 09:36:12;;;;;;;26.20;11.88;;;;;;;15.66;71.17;96796.31;5093770;28;20097;-49
2022/03/31 09:38:40;;;;;;;32.55;11.50;;;;;;;17.58;67.32;96783.69;5095065;28;20028;-49
2022/03/31 09:41:19;;;;;;;24.50;11.45;;;;;;;19.96;64.37;96771.06;5094943;28;20536;-48
2022/03/31 09:43:46;;;;;;;21.70;11.52;;;;;;;21.10;58.25;96769.31;5094872;28;20031;-49
2022/03/31 09:46:38;;;;;;;22.45;12.00;;;;;;;20.94;59.61;96772.47;5094920;28;20119;-49
2022/03/31 09:49:13;;;;;;;29.33;12.32;;;;;;;21.57;59.86;96779.28;5094847;28;20032;-49
2022/03/31 09:51:39;;;;;;;39.03;13.13;;;;;;;23.33;52.30;96760.75;5093463;28;20020;-49
2022/03/31 09:54:06;;;;;;;33.50;12.40;;;;;;;24.57;50.43;96763.50;5094898;28;20024;-49
2022/03/31 09:56:39;;;;;;;30.65;12.65;;;;;;;24.88;48.14;96752.91;5094707;28;20031;-49
2022/03/31 09:59:07;;;;;;;20.02;11.73;;;;;;;24.68;47.55;96756.56;5094711;28;20061;-49
2022/03/31 10:01:34;;;;;;;30.67;12.25;;;;;;;24.89;45.85;96751.78;5094586;28;20039;-49
2022/03/31 10:04:02;;;;;;;30.67;12.73;;;;;;;24.60;45.32;96750.19;5094594;28;20569;-49
2022/03/31 10:06:28;;;;;;;23.33;12.45;;;;;;;24.44;46.14;96750.09;5094441;28;20099;-49
2022/03/31 10:08:57;;;;;;;26.83;12.05;;;;;;;23.99;45.92;96748.38;5094386;28;20020;-49
2022/03/31 10:11:25;;;;;;;24.88;12.13;;;;;;;24.18;45.77;96745.09;5094336;28;20031;-50
2022/03/31 10:13:54;;;;;;;25.50;12.93;;;;;;;24.62;44.57;96745.28;5094977;28;20028;-49
2022/03/31 10:16:34;;;;;;;21.30;11.60;;;;;;;23.71;45.00;96745.53;5094318;28;20846;-49
2022/03/31 10:18:59;;;;;;;36.17;13.98;;;;;;;22.32;47.07;96739.56;5094264;28;20051;-49
2022/03/31 10:21:27;;;;;;;33.63;14.52;;;;;;;21.20;52.15;96747.66;5093108;28;20424;-49
2022/03/31 10:26:37;;;;;;;94.68;30.40;;;;;;;18.83;57.98;96749.91;5094386;28;20079;-49
2022/03/31 10:29:15;;;;;;;47.78;17.30;;;;;;;17.86;60.30;96743.97;5093847;28;20080;-49
2022/03/31 10:31:43;;;;;;;29.75;14.93;;;;;;;17.22;61.41;96749.84;5092732;28;20425;-49
2022/03/31 10:34:11;;;;;;;22.00;14.38;;;;;;;16.89;63.00;96741.88;5093996;28;20439;-50
2022/03/31 10:36:48;;;;;;;26.52;13.45;;;;;;;18.04;62.08;96731.66;5093906;28;20020;-49
2022/03/31 10:39:31;;;;;;;25.80;12.23;;;;;;;20.63;58.10;96724.66;5093919;28;20028;-50
2022/03/31 10:42:02;;;;;;;57.00;15.45;;;;;;;22.53;53.18;96718.94;5093633;28;20039;-50
2022/03/31 10:44:28;;;;;;;35.70;12.73;;;;;;;24.13;45.47;96702.47;5092481;28;20024;-50
2022/03/31 10:47:06;;;;;;;26.27;11.73;;;;;;;24.03;44.34;96705.59;5093728;28;20374;-50
2022/03/31 10:49:34;;;;;;;29.35;12.45;;;;;;;23.72;42.80;96705.03;5093653;28;20059;-51
2022/03/31 10:52:17;;;;;;;53.95;14.10;;;;;;;23.47;42.51;96698.88;5093643;28;20055;-50
2022/03/31 10:54:43;;;;;;;28.63;11.80;;;;;;;22.82;41.86;96703.94;5093613;28;20020;-49
2022/03/31 10:57:17;;;;;;;18.50;9.38;;;;;;;21.78;42.75;96716.09;5093517;28;20016;-50
2022/03/31 10:59:47;;;;;;;17.95;8.07;;;;;;;21.17;43.38;96715.47;5092178;28;20092;-51
2022/03/31 11:02:22;;;;;;;17.63;8.68;;;;;;;20.93;43.46;96714.13;5093426;28;20024;-49
2022/03/31 11:04:53;;;;;;;21.25;11.68;;;;;;;20.87;43.55;96718.06;5093487;28;20020;-50
2022/03/31 11:07:24;;;;;;;14.60;6.78;;;;;;;20.71;43.27;96718.53;5093292;28;20053;-51
2022/03/31 11:10:01;;;;;;;19.75;8.15;;;;;;;21.35;44.70;96714.34;5093352;28;20498;-51
2022/03/31 11:12:28;;;;;;;17.27;7.60;;;;;;;21.40;42.26;96710.72;5091932;28;20032;-50
2022/03/31 11:15:03;;;;;;;6.03;4.25;;;;;;;21.00;42.36;96711.75;5093202;28;20024;-51
2022/03/31 11:17:31;;;;;;;7.82;3.78;;;;;;;20.40;42.70;96733.84;5093219;28;20020;-50
2022/03/31 11:19:58;;;;;;;10.73;4.97;;;;;;;19.44;47.66;96730.91;5093081;28;20032;-49
2022/03/31 11:22:27;;;;;;;13.05;5.75;;;;;;;18.08;51.73;96735.31;5091691;28;20442;-48
2022/03/31 11:25:13;;;;;;;9.60;4.78;;;;;;;16.51;55.45;96741.88;5093011;28;20050;-49
2022/03/31 11:27:41;;;;;;;14.73;7.47;;;;;;;15.30;60.79;96757.00;5090721;28;20574;-49